Time;durP1;ratioP1;P1;durP2;ratioP2;P2;SDS_P1;SDS_P2;PMS_P1;PMS_P2;Temp;Humidity;BMP_temperature;BMP_pressure;BME280_temperature;BME280_humidity;BME280_pressure;Samples;Min_cycle;Max_cycle;Signal;HPM_P1;HPM_P2
2023/10/23 00:00:27;;;;;;;16.58;8.65;;;;;;;5.47;91.01;98812.75;5042009;28;20033;-48
2023/10/23 00:02:53;;;;;;;16.17;7.80;;;;;;;5.52;91.47;98800.56;5032071;28;20103;-45
2023/10/23 00:05:18;;;;;;;22.30;9.30;;;;;;;5.60;91.42;98796.94;5020818;28;20040;-48
2023/10/23 00:07:44;;;;;;;18.25;7.90;;;;;;;5.68;90.97;98784.66;5026563;28;20044;-46
2023/10/23 00:10:10;;;;;;;14.32;7.05;;;;;;;5.60;90.68;98760.84;5030364;28;20044;-48
2023/10/23 00:12:36;;;;;;;14.23;7.78;;;;;;;5.78;90.87;98776.59;5030729;28;20064;-47
2023/10/23 00:15:03;;;;;;;17.15;8.00;;;;;;;5.84;91.46;98778.16;5031264;28;20041;-48
2023/10/23 00:17:31;;;;;;;21.17;8.80;;;;;;;5.75;91.36;98750.06;5046449;28;20036;-46
2023/10/23 00:19:57;;;;;;;15.95;7.85;;;;;;;5.87;90.63;98762.63;5030535;28;20063;-45
2023/10/23 00:22:23;;;;;;;15.38;7.63;;;;;;;5.84;90.65;98775.59;5040215;28;20556;-48
2023/10/23 00:24:49;;;;;;;19.77;7.43;;;;;;;5.80;90.78;98774.00;5030334;28;20132;-46
2023/10/23 00:27:15;;;;;;;16.15;7.50;;;;;;;5.69;90.28;98761.41;5030515;28;20587;-45
2023/10/23 00:29:41;;;;;;;20.88;8.80;;;;;;;5.66;90.50;98735.72;5031733;28;20041;-49
2023/10/23 00:32:07;;;;;;;15.15;7.97;;;;;;;5.84;90.35;98739.47;5048136;28;20049;-46
2023/10/23 00:34:33;;;;;;;15.88;7.00;;;;;;;5.82;89.86;98730.94;5031260;28;20045;-47
2023/10/23 00:36:59;;;;;;;16.77;7.40;;;;;;;5.78;90.50;98734.50;5055403;28;20041;-50
2023/10/23 00:39:25;;;;;;;19.75;8.32;;;;;;;5.62;90.20;98698.03;5031215;28;20037;-48
2023/10/23 00:41:51;;;;;;;12.98;7.45;;;;;;;5.86;90.51;98712.72;5032016;28;20045;-44
2023/10/23 00:44:17;;;;;;;18.15;8.05;;;;;;;5.76;90.23;98659.75;5032661;28;20114;-46
2023/10/23 00:46:43;;;;;;;18.92;9.32;;;;;;;5.95;90.25;98665.22;5033058;28;20049;-46
2023/10/23 00:49:09;;;;;;;15.38;7.78;;;;;;;6.05;89.94;98676.94;5029703;28;20049;-46
2023/10/23 00:51:35;;;;;;;15.60;8.25;;;;;;;6.06;90.21;98668.31;5032766;28;20036;-46
2023/10/23 00:54:02;;;;;;;14.32;8.43;;;;;;;6.06;89.75;98657.97;5031826;28;20045;-46
2023/10/23 00:56:30;;;;;;;19.13;9.60;;;;;;;6.04;89.99;98654.59;5033320;28;20045;-49
2023/10/23 00:58:56;;;;;;;16.73;8.85;;;;;;;6.13;89.81;98651.72;5047214;28;20041;-46
2023/10/23 01:01:22;;;;;;;15.35;8.20;;;;;;;6.10;89.64;98656.13;5031948;28;20037;-52
2023/10/23 01:03:48;;;;;;;16.70;8.40;;;;;;;6.11;88.83;98670.72;5030390;28;20128;-46
2023/10/23 01:06:14;;;;;;;13.85;7.65;;;;;;;5.89;88.92;98644.78;5032418;28;20049;-46
2023/10/23 01:08:42;;;;;;;12.85;7.13;;;;;;;5.97;88.34;98684.06;5031369;28;20048;-48
2023/10/23 01:11:08;;;;;;;12.38;7.25;;;;;;;5.89;88.38;98684.31;5046929;28;20041;-46
2023/10/23 01:13:34;;;;;;;15.63;8.07;;;;;;;5.74;88.47;98691.66;5043992;28;20087;-49
2023/10/23 01:16:00;;;;;;;16.05;8.52;;;;;;;5.72;89.00;98677.94;5030842;28;20041;-46
2023/10/23 01:18:26;;;;;;;14.73;7.72;;;;;;;5.75;88.70;98683.03;5044275;28;20574;-47
2023/10/23 01:20:52;;;;;;;16.50;8.05;;;;;;;5.51;88.58;98646.78;5046690;28;20394;-48
2023/10/23 01:23:18;;;;;;;14.05;7.18;;;;;;;5.43;88.69;98617.00;5030644;28;20041;-48
2023/10/23 01:25:44;;;;;;;15.73;8.40;;;;;;;5.41;89.09;98604.16;5032562;28;20052;-49
2023/10/23 01:28:10;;;;;;;17.83;7.45;;;;;;;5.75;89.21;98658.09;5047896;28;20041;-47
2023/10/23 01:30:36;;;;;;;14.05;7.60;;;;;;;5.55;88.92;98629.47;5032339;28;20385;-48
2023/10/23 01:33:02;;;;;;;13.18;7.28;;;;;;;5.71;89.11;98646.16;5027071;28;20049;-46
2023/10/23 01:35:28;;;;;;;12.63;7.00;;;;;;;5.78;88.61;98650.25;5030895;28;20037;-46
2023/10/23 01:37:55;;;;;;;14.02;7.07;;;;;;;5.73;88.68;98648.69;5035353;28;20048;-48
2023/10/23 01:40:20;;;;;;;12.02;6.65;;;;;;;5.82;88.52;98641.50;5023801;28;20060;-47
2023/10/23 01:42:47;;;;;;;11.27;7.07;;;;;;;5.77;88.35;98645.97;5032571;28;20525;-45
2023/10/23 01:45:13;;;;;;;13.20;7.00;;;;;;;5.77;88.90;98642.53;5036757;28;20053;-49
2023/10/23 01:47:39;;;;;;;12.15;6.93;;;;;;;5.78;89.16;98639.09;5046300;28;20913;-47
2023/10/23 01:50:06;;;;;;;12.25;6.88;;;;;;;5.78;88.80;98629.63;5029437;28;20029;-47
2023/10/23 01:52:33;;;;;;;15.88;7.65;;;;;;;5.61;88.97;98594.94;5045534;28;20033;-46
2023/10/23 01:54:59;;;;;;;14.35;7.07;;;;;;;5.81;88.96;98613.22;5030026;28;20055;-45
2023/10/23 01:57:31;;;;;;;13.77;7.53;;;;;;;5.79;88.97;98573.72;5043389;28;20037;-46
2023/10/23 02:00:04;;;;;;;13.25;7.18;;;;;;;6.04;88.84;98610.75;5037662;28;20103;-44
2023/10/23 02:02:39;;;;;;;11.10;6.60;;;;;;;6.14;88.59;98619.84;5039393;28;20053;-45
2023/10/23 02:05:06;;;;;;;12.15;6.95;;;;;;;6.02;88.28;98598.81;5010823;28;20072;-46
2023/10/23 02:07:33;;;;;;;14.75;7.93;;;;;;;6.14;88.28;98624.16;5031451;28;20048;-48
2023/10/23 02:10:00;;;;;;;13.63;7.25;;;;;;;6.19;88.04;98622.28;5026868;28;20033;-49
2023/10/23 02:12:27;;;;;;;12.90;7.40;;;;;;;6.26;87.80;98622.03;5015269;28;20056;-48
2023/10/23 02:14:55;;;;;;;15.00;7.70;;;;;;;6.23;87.27;98635.03;5046254;28;20207;-45
2023/10/23 02:17:22;;;;;;;11.32;7.00;;;;;;;6.26;87.18;98611.72;5031189;28;20139;-45
2023/10/23 02:19:48;;;;;;;14.18;7.40;;;;;;;6.04;87.08;98571.19;5030642;28;20178;-48
2023/10/23 02:22:16;;;;;;;15.68;8.32;;;;;;;6.26;87.50;98597.97;5045963;28;20131;-49
2023/10/23 02:24:42;;;;;;;14.43;7.82;;;;;;;6.26;86.98;98597.97;5012198;28;20073;-45
2023/10/23 02:27:08;;;;;;;14.45;7.65;;;;;;;6.31;87.40;98596.06;5030593;28;20068;-45
2023/10/23 02:29:34;;;;;;;12.95;7.88;;;;;;;6.33;86.88;98589.94;5034898;28;20172;-46
2023/10/23 02:32:00;;;;;;;15.48;7.82;;;;;;;6.40;87.09;98593.16;5049621;28;20136;-46
2023/10/23 02:34:26;;;;;;;16.67;8.45;;;;;;;6.46;86.93;98589.53;5018163;28;20037;-48
2023/10/23 02:36:52;;;;;;;14.35;7.78;;;;;;;6.51;86.60;98583.28;5042014;28;20093;-47
2023/10/23 02:39:18;;;;;;;14.25;8.52;;;;;;;6.54;86.50;98580.59;5049722;28;20037;-47
2023/10/23 02:41:43;;;;;;;12.85;7.55;;;;;;;6.50;86.34;98579.03;5034549;28;20084;-45
2023/10/23 02:44:10;;;;;;;15.20;9.10;;;;;;;6.51;86.12;98567.81;5035170;28;20119;-46
2023/10/23 02:46:40;;;;;;;15.15;7.72;;;;;;;6.57;86.83;98556.41;5034800;28;20536;-46
2023/10/23 02:49:06;;;;;;;14.43;8.02;;;;;;;6.42;86.41;98526.00;5030420;28;20133;-48
2023/10/23 02:51:33;;;;;;;16.02;8.05;;;;;;;6.51;85.78;98552.31;5049818;28;20779;-49
2023/10/23 02:53:58;;;;;;;14.48;8.98;;;;;;;6.51;86.00;98546.31;5026606;28;20056;-46
2023/10/23 02:56:25;;;;;;;15.25;8.68;;;;;;;6.44;85.98;98535.34;5049391;28;20045;-46
2023/10/23 02:58:51;;;;;;;20.08;8.18;;;;;;;6.56;85.73;98540.09;5050190;28;20156;-45
2023/10/23 03:01:21;;;;;;;16.40;8.75;;;;;;;6.63;85.91;98540.72;5056370;28;20528;-47
2023/10/23 03:03:48;;;;;;;17.23;7.95;;;;;;;6.59;85.43;98515.91;5057149;28;20072;-48
2023/10/23 03:06:14;;;;;;;13.82;7.75;;;;;;;6.55;85.41;98504.81;5034756;28;20126;-50
2023/10/23 03:08:40;;;;;;;13.88;7.75;;;;;;;6.58;85.56;98511.63;5046248;28;20633;-51
2023/10/23 03:11:06;;;;;;;14.50;8.35;;;;;;;6.72;84.94;98533.44;5048255;28;20123;-46
2023/10/23 03:13:32;;;;;;;15.23;8.20;;;;;;;6.66;85.61;98528.50;5030716;28;20132;-48
2023/10/23 03:15:58;;;;;;;12.55;7.45;;;;;;;6.55;85.06;98496.22;5060879;28;20039;-47
2023/10/23 03:18:25;;;;;;;13.70;7.63;;;;;;;6.71;85.23;98508.53;5032268;28;20084;-45
2023/10/23 03:20:51;;;;;;;14.85;6.97;;;;;;;6.71;85.27;98500.78;5046003;28;20045;-45
2023/10/23 03:23:18;;;;;;;14.85;6.93;;;;;;;6.62;85.22;98492.53;5050874;28;20431;-46
2023/10/23 03:25:44;;;;;;;14.45;7.30;;;;;;;6.64;85.21;98494.19;5048244;28;20041;-47
2023/10/23 03:28:10;;;;;;;11.40;6.53;;;;;;;6.54;85.09;98487.66;5056492;28;20048;-47
2023/10/23 03:30:37;;;;;;;10.82;6.55;;;;;;;6.48;85.15;98479.31;5052711;28;20051;-48
2023/10/23 03:33:04;;;;;;;10.93;6.15;;;;;;;6.48;85.67;98474.16;5053188;28;20068;-46
2023/10/23 03:35:30;;;;;;;12.80;6.40;;;;;;;6.52;85.83;98467.97;5050221;28;20044;-49
2023/10/23 03:37:56;;;;;;;12.57;7.63;;;;;;;6.56;85.35;98464.34;5043798;28;20132;-45
2023/10/23 03:40:22;;;;;;;10.85;6.55;;;;;;;6.59;85.29;98454.78;5038678;28;20516;-48
2023/10/23 03:42:52;;;;;;;13.02;6.57;;;;;;;6.50;85.26;98457.69;5039011;28;20072;-43
2023/10/23 03:45:18;;;;;;;13.27;6.30;;;;;;;6.50;85.36;98452.53;5061960;28;20486;-46
2023/10/23 03:47:47;;;;;;;11.63;6.78;;;;;;;6.46;85.29;98456.13;5034235;28;20045;-47
2023/10/23 03:50:13;;;;;;;11.95;6.50;;;;;;;6.50;85.40;98446.50;5032722;28;20033;-48
2023/10/23 03:52:39;;;;;;;14.80;7.05;;;;;;;6.51;85.44;98455.94;5059905;28;20436;-49
2023/10/23 03:55:06;;;;;;;11.25;6.60;;;;;;;6.54;85.72;98450.69;5025996;28;20056;-45
2023/10/23 03:57:31;;;;;;;14.80;7.38;;;;;;;6.55;85.76;98454.94;5031571;28;20037;-45
2023/10/23 03:59:57;;;;;;;12.05;7.28;;;;;;;6.57;85.70;98451.41;5042611;28;20044;-46
2023/10/23 04:02:24;;;;;;;12.77;6.88;;;;;;;6.63;85.77;98437.41;5038167;28;20119;-48
2023/10/23 04:04:50;;;;;;;11.70;6.50;;;;;;;6.65;86.26;98438.19;5039810;28;20522;-50
2023/10/23 04:07:16;;;;;;;12.35;6.40;;;;;;;6.58;86.22;98429.00;5039082;28;20044;-47
2023/10/23 04:09:42;;;;;;;12.38;6.00;;;;;;;6.64;86.11;98426.19;5033170;28;20038;-47
2023/10/23 04:12:08;;;;;;;10.55;5.60;;;;;;;6.55;86.40;98405.88;5048315;28;20045;-47
2023/10/23 04:14:33;;;;;;;12.27;6.05;;;;;;;6.70;86.27;98429.34;5031822;28;20041;-46
2023/10/23 04:16:59;;;;;;;11.98;6.28;;;;;;;6.74;86.53;98412.88;5032546;28;20041;-47
2023/10/23 04:19:25;;;;;;;9.40;5.70;;;;;;;6.71;87.04;98418.13;5031515;28;20466;-47
2023/10/23 04:21:51;;;;;;;12.85;6.20;;;;;;;6.67;86.74;98429.50;5030153;28;20067;-48
2023/10/23 04:24:17;;;;;;;10.40;6.25;;;;;;;6.72;87.28;98404.31;5031388;28;20053;-47
2023/10/23 04:26:43;;;;;;;13.15;6.28;;;;;;;6.76;87.29;98405.88;5031886;28;20521;-51
2023/10/23 04:29:09;;;;;;;11.02;5.93;;;;;;;6.63;87.43;98365.13;5035155;28;20068;-50
2023/10/23 04:31:35;;;;;;;14.38;6.35;;;;;;;6.66;87.58;98365.81;5047908;28;20049;-46
2023/10/23 04:34:00;;;;;;;13.80;6.38;;;;;;;6.72;88.09;98364.75;5047683;28;20041;-47
2023/10/23 04:36:26;;;;;;;11.90;5.60;;;;;;;6.59;87.98;98336.00;5038919;28;20048;-46
2023/10/23 04:38:52;;;;;;;10.60;5.55;;;;;;;6.88;87.76;98378.72;5032229;28;20052;-49
2023/10/23 04:41:21;;;;;;;11.73;5.63;;;;;;;6.85;88.13;98373.69;5030678;28;20091;-50
2023/10/23 04:43:47;;;;;;;10.48;5.82;;;;;;;6.78;87.87;98360.19;5047206;28;20049;-46
2023/10/23 04:46:13;;;;;;;12.40;6.20;;;;;;;6.91;88.08;98370.84;5022210;28;20061;-47
2023/10/23 04:48:39;;;;;;;11.40;6.07;;;;;;;6.98;87.79;98380.03;5029367;28;20037;-47
2023/10/23 04:51:05;;;;;;;11.40;5.82;;;;;;;7.03;88.17;98369.50;5031929;28;20434;-46
2023/10/23 04:53:31;;;;;;;14.10;6.53;;;;;;;7.03;87.63;98366.91;5032663;28;20118;-47
2023/10/23 04:55:58;;;;;;;12.32;5.72;;;;;;;6.88;87.68;98336.56;5032038;28;20049;-53
2023/10/23 04:58:24;;;;;;;15.98;6.22;;;;;;;7.08;87.82;98358.06;5046602;28;20053;-46
2023/10/23 05:00:50;;;;;;;11.60;6.35;;;;;;;7.11;87.87;98362.28;5032333;28;20123;-51
2023/10/23 05:03:16;;;;;;;15.95;6.32;;;;;;;7.06;87.83;98359.06;5031746;28;20040;-46
2023/10/23 05:05:47;;;;;;;14.73;6.53;;;;;;;7.03;87.46;98346.25;5032281;28;20041;-46
2023/10/23 05:08:13;;;;;;;16.98;7.57;;;;;;;7.01;87.82;98348.91;5031898;28;20033;-50
2023/10/23 05:10:39;;;;;;;16.10;7.60;;;;;;;7.07;87.60;98348.63;5029000;28;20091;-52
2023/10/23 05:13:05;;;;;;;17.42;7.93;;;;;;;6.93;88.00;98322.53;5030374;28;20045;-48
2023/10/23 05:15:31;;;;;;;17.77;8.32;;;;;;;7.10;88.21;98339.94;5032343;28;20491;-48
2023/10/23 05:17:57;;;;;;;18.48;7.97;;;;;;;7.14;88.12;98337.16;5031763;28;20045;-49
2023/10/23 05:20:24;;;;;;;21.67;8.63;;;;;;;7.11;87.83;98337.28;5027471;28;20424;-49
2023/10/23 05:22:50;;;;;;;16.10;7.97;;;;;;;7.13;87.69;98335.47;5028507;28;20629;-46
2023/10/23 05:25:17;;;;;;;15.02;7.93;;;;;;;7.16;87.84;98331.94;5031820;28;20538;-48
2023/10/23 05:27:45;;;;;;;19.30;8.57;;;;;;;7.04;88.18;98312.59;5029085;28;20049;-49
2023/10/23 05:30:12;;;;;;;18.42;7.97;;;;;;;7.23;88.15;98323.00;5031993;28;20045;-47
2023/10/23 05:32:38;;;;;;;17.50;9.00;;;;;;;7.23;88.11;98330.75;5026787;28;20056;-47
2023/10/23 05:35:06;;;;;;;20.00;9.15;;;;;;;7.31;88.02;98339.03;5048901;28;20041;-48
2023/10/23 05:37:34;;;;;;;17.33;8.88;;;;;;;7.32;88.13;98327.78;5031681;28;20087;-48
2023/10/23 05:40:00;;;;;;;21.88;8.90;;;;;;;7.36;87.82;98329.34;5030412;28;20433;-47
2023/10/23 05:42:26;;;;;;;17.70;9.25;;;;;;;7.39;88.18;98323.19;5029138;28;20041;-47
2023/10/23 05:44:52;;;;;;;19.45;9.00;;;;;;;7.37;87.83;98328.44;5022645;28;20100;-49
2023/10/23 05:47:18;;;;;;;26.85;10.27;;;;;;;7.32;87.52;98324.38;5040282;28;20476;-49
2023/10/23 05:49:43;;;;;;;21.65;10.45;;;;;;;7.28;87.89;98315.03;5031395;28;20048;-47
2023/10/23 05:52:09;;;;;;;25.85;10.27;;;;;;;7.27;88.16;98318.56;5030071;28;20401;-49
2023/10/23 05:54:35;;;;;;;23.02;10.15;;;;;;;7.30;88.02;98316.66;5032006;28;20532;-50
2023/10/23 05:57:01;;;;;;;24.45;10.43;;;;;;;7.27;88.22;98311.63;5030816;28;20132;-51
2023/10/23 05:59:27;;;;;;;28.85;11.05;;;;;;;7.28;88.03;98310.72;5031809;28;20041;-46
2023/10/23 06:01:53;;;;;;;25.88;10.80;;;;;;;7.32;88.27;98314.88;5032417;28;20054;-48
2023/10/23 06:04:19;;;;;;;30.25;11.30;;;;;;;7.36;88.76;98307.81;5035022;28;20045;-47
2023/10/23 06:06:46;;;;;;;24.48;11.20;;;;;;;7.29;88.39;98283.97;5034866;28;20116;-46
2023/10/23 06:09:12;;;;;;;24.23;10.45;;;;;;;7.47;88.21;98305.59;5050838;28;20518;-47
2023/10/23 06:11:37;;;;;;;20.77;10.02;;;;;;;7.41;87.97;98296.38;5027916;28;20172;-47
2023/10/23 06:14:03;;;;;;;23.08;10.23;;;;;;;7.46;87.92;98309.09;5034583;28;20052;-48
2023/10/23 06:16:29;;;;;;;24.10;10.70;;;;;;;7.46;88.09;98304.75;5046456;28;20047;-50
2023/10/23 06:18:55;;;;;;;27.77;11.57;;;;;;;7.50;88.36;98305.44;5032279;28;20698;-49
2023/10/23 06:21:21;;;;;;;26.27;11.30;;;;;;;7.49;88.23;98296.84;5034227;28;20045;-47
2023/10/23 06:23:47;;;;;;;26.63;11.20;;;;;;;7.53;88.51;98298.41;5032468;28;20045;-48
2023/10/23 06:26:13;;;;;;;22.67;10.80;;;;;;;7.54;88.42;98288.88;5035717;28;20033;-46
2023/10/23 06:28:39;;;;;;;23.98;10.80;;;;;;;7.56;88.81;98293.09;5030211;28;20532;-48
2023/10/23 06:31:05;;;;;;;24.90;10.77;;;;;;;7.59;88.83;98285.19;5035340;28;20651;-48
2023/10/23 06:33:31;;;;;;;26.40;11.05;;;;;;;7.64;88.91;98280.66;5046497;28;20045;-47
2023/10/23 06:35:58;;;;;;;26.52;10.52;;;;;;;7.62;88.58;98279.91;5036214;28;20421;-48
2023/10/23 06:38:23;;;;;;;20.13;9.43;;;;;;;7.61;88.61;98278.22;5037605;28;20119;-47
2023/10/23 06:40:49;;;;;;;19.13;9.10;;;;;;;7.60;88.76;98276.53;5032668;28;20068;-49
2023/10/23 06:43:15;;;;;;;20.05;10.02;;;;;;;7.57;88.89;98276.69;5047976;28;20164;-51
2023/10/23 06:45:42;;;;;;;22.77;9.13;;;;;;;7.58;89.00;98273.19;5034015;28;20044;-49
2023/10/23 06:48:08;;;;;;;16.88;8.70;;;;;;;7.59;89.03;98279.19;5049775;28;20033;-50
2023/10/23 06:50:34;;;;;;;16.52;8.35;;;;;;;7.52;88.71;98270.88;5034087;28;20129;-50
2023/10/23 06:52:59;;;;;;;16.55;8.65;;;;;;;7.53;88.90;98269.13;5033936;28;20033;-47
2023/10/23 06:55:27;;;;;;;17.40;8.25;;;;;;;7.54;88.63;98268.19;5035046;28;20103;-49
2023/10/23 06:57:56;;;;;;;20.70;8.30;;;;;;;7.51;88.71;98269.19;5034790;28;20045;-49
2023/10/23 07:00:22;;;;;;;20.63;8.82;;;;;;;7.56;89.15;98266.41;5050024;28;20097;-45
2023/10/23 07:02:49;;;;;;;19.73;10.10;;;;;;;7.58;89.07;98265.44;5048751;28;20049;-46
2023/10/23 07:05:15;;;;;;;16.60;8.35;;;;;;;7.63;89.25;98265.22;5038170;28;20040;-50
2023/10/23 07:07:41;;;;;;;24.75;10.63;;;;;;;7.55;89.60;98255.22;5034326;28;20153;-45
2023/10/23 07:10:07;;;;;;;19.52;9.10;;;;;;;7.47;89.45;98234.03;5029442;28;20123;-46
2023/10/23 07:12:33;;;;;;;17.48;8.60;;;;;;;7.64;89.65;98256.56;5035746;28;20045;-46
2023/10/23 07:15:01;;;;;;;15.65;7.57;;;;;;;7.61;89.91;98260.13;5032611;28;20083;-46
2023/10/23 07:17:30;;;;;;;15.82;8.65;;;;;;;7.63;89.46;98254.88;5034886;28;20049;-45
2023/10/23 07:19:56;;;;;;;17.27;8.00;;;;;;;7.68;90.09;98262.44;5048749;28;20037;-54
2023/10/23 07:22:22;;;;;;;15.07;6.97;;;;;;;7.72;90.11;98257.03;5033588;28;20052;-48
2023/10/23 07:24:48;;;;;;;15.77;7.88;;;;;;;7.71;90.38;98257.94;5032129;28;20572;-48
2023/10/23 07:27:16;;;;;;;13.90;8.05;;;;;;;7.72;90.55;98256.19;5040639;28;20103;-47
2023/10/23 07:29:43;;;;;;;20.17;8.00;;;;;;;7.63;89.98;98247.13;5048789;28;20068;-46
2023/10/23 07:32:09;;;;;;;18.13;7.35;;;;;;;7.70;90.54;98242.47;5033645;28;20528;-49
2023/10/23 07:34:35;;;;;;;14.40;7.72;;;;;;;7.73;90.57;98244.94;5032965;28;20037;-51
2023/10/23 07:37:03;;;;;;;15.52;8.38;;;;;;;7.75;90.63;98243.94;5054173;28;20448;-48
2023/10/23 07:39:29;;;;;;;16.83;7.60;;;;;;;7.82;91.02;98239.34;5037126;28;20036;-48
2023/10/23 07:41:55;;;;;;;17.73;8.25;;;;;;;7.63;90.93;98197.97;5036507;28;20487;-49
2023/10/23 07:44:21;;;;;;;16.35;8.57;;;;;;;7.90;90.49;98234.66;5034162;28;20052;-49
2023/10/23 07:46:46;;;;;;;12.95;7.97;;;;;;;7.76;90.66;98201.66;5033297;28;20099;-49
2023/10/23 07:49:13;;;;;;;19.35;7.45;;;;;;;7.97;90.39;98226.53;5044221;28;20041;-52
2023/10/23 07:51:38;;;;;;;16.33;7.93;;;;;;;8.03;90.27;98228.84;5030656;28;20044;-53
2023/10/23 07:54:05;;;;;;;19.00;8.25;;;;;;;7.84;90.00;98198.72;5042452;28;20045;-47
2023/10/23 07:56:30;;;;;;;17.25;6.53;;;;;;;8.04;89.91;98227.09;5046403;28;20521;-49
2023/10/23 07:58:56;;;;;;;15.15;8.15;;;;;;;8.04;89.88;98227.94;5034416;28;20057;-46
2023/10/23 08:01:22;;;;;;;16.45;6.90;;;;;;;8.05;89.61;98226.19;5039380;28;20424;-46
2023/10/23 08:03:48;;;;;;;15.27;8.95;;;;;;;8.07;89.54;98222.59;5052847;28;20405;-47
2023/10/23 08:06:15;;;;;;;15.25;6.53;;;;;;;8.06;89.92;98220.06;5050330;28;20074;-46
2023/10/23 08:08:43;;;;;;;14.27;5.90;;;;;;;8.06;89.88;98214.88;5049837;28;20040;-46
2023/10/23 08:11:10;;;;;;;12.25;6.25;;;;;;;8.01;90.08;98207.34;5051893;28;20037;-46
2023/10/23 08:13:37;;;;;;;9.45;4.88;;;;;;;8.01;90.43;98215.13;5050425;28;20116;-46
2023/10/23 08:16:03;;;;;;;12.25;5.35;;;;;;;7.98;90.33;98202.34;5050863;28;20032;-49
2023/10/23 08:18:29;;;;;;;11.27;5.65;;;;;;;7.93;90.70;98206.88;5039700;28;20133;-49
2023/10/23 08:20:55;;;;;;;12.65;6.20;;;;;;;7.95;90.77;98202.50;5032440;28;20052;-51
2023/10/23 08:23:21;;;;;;;10.32;5.38;;;;;;;7.93;90.54;98193.94;5068046;28;20139;-46
2023/10/23 08:25:47;;;;;;;11.25;6.15;;;;;;;7.93;90.49;98191.38;5061687;28;20436;-47
2023/10/23 08:28:13;;;;;;;13.50;6.75;;;;;;;7.97;90.57;98199.81;5052759;28;20044;-45
2023/10/23 08:30:39;;;;;;;21.33;9.75;;;;;;;8.00;90.58;98195.34;5044291;28;20040;-45
2023/10/23 08:33:05;;;;;;;15.68;9.43;;;;;;;8.03;90.41;98199.53;5051195;28;20047;-47
2023/10/23 08:35:32;;;;;;;11.18;5.47;;;;;;;8.05;90.49;98185.63;5047355;28;20095;-48
2023/10/23 08:37:58;;;;;;;11.43;5.65;;;;;;;8.14;90.53;98188.66;5031041;28;20053;-47
2023/10/23 08:40:24;;;;;;;13.40;5.93;;;;;;;8.20;90.20;98185.78;5040205;28;20060;-51
2023/10/23 08:42:50;;;;;;;10.40;5.35;;;;;;;8.28;90.02;98176.72;5024949;28;20087;-50
2023/10/23 08:45:17;;;;;;;11.82;6.07;;;;;;;8.14;89.58;98152.41;5052938;28;20048;-49
2023/10/23 08:47:43;;;;;;;13.63;6.47;;;;;;;8.16;89.48;98155.78;5032999;28;20045;-46
2023/10/23 08:50:12;;;;;;;14.13;6.35;;;;;;;8.20;89.43;98149.53;5036849;28;20090;-46
2023/10/23 08:52:46;;;;;;;11.57;6.18;;;;;;;8.37;89.28;98165.13;5033214;28;20052;-46
2023/10/23 08:55:13;;;;;;;14.00;6.72;;;;;;;8.37;88.79;98165.94;5037120;28;20123;-49
2023/10/23 08:57:51;;;;;;;11.32;6.15;;;;;;;8.26;88.76;98141.47;5026319;28;20037;-51
2023/10/23 09:00:17;;;;;;;11.82;6.45;;;;;;;8.45;88.55;98160.38;5005038;28;20040;-48
2023/10/23 09:02:43;;;;;;;10.88;6.05;;;;;;;8.51;88.55;98160.06;5037514;28;20049;-47
2023/10/23 09:05:09;;;;;;;11.68;6.35;;;;;;;8.58;88.26;98153.69;5034276;28;20038;-46
2023/10/23 09:07:35;;;;;;;16.08;7.32;;;;;;;8.65;88.14;98143.81;5034225;28;20049;-46
2023/10/23 09:10:05;;;;;;;15.85;8.70;;;;;;;8.73;88.01;98141.69;5031169;28;20030;-46
2023/10/23 09:12:32;;;;;;;13.88;6.88;;;;;;;8.78;87.30;98135.34;5032585;28;20125;-47
2023/10/23 09:15:15;;;;;;;14.38;7.13;;;;;;;8.84;87.13;98141.97;5053986;28;20049;-46
2023/10/23 09:17:42;;;;;;;14.32;7.32;;;;;;;8.80;87.03;98130.91;5038039;28;20513;-46
2023/10/23 09:20:26;;;;;;;16.63;8.13;;;;;;;8.85;86.47;98126.34;5037414;28;20037;-47
2023/10/23 09:22:53;;;;;;;16.42;7.43;;;;;;;8.59;86.37;98066.41;5031900;28;20463;-46
2023/10/23 09:25:21;;;;;;;13.45;7.10;;;;;;;8.90;85.96;98118.31;5046794;28;20052;-50
2023/10/23 09:27:47;;;;;;;13.77;7.00;;;;;;;8.90;85.74;98113.97;5050055;28;20076;-48
2023/10/23 09:30:15;;;;;;;14.73;6.57;;;;;;;8.77;85.71;98087.03;5049884;28;20136;-48
2023/10/23 09:32:41;;;;;;;11.40;6.72;;;;;;;8.83;85.51;98078.94;5049809;28;20517;-47
2023/10/23 09:35:08;;;;;;;17.67;8.10;;;;;;;9.01;85.24;98113.41;5029874;28;20103;-47
2023/10/23 09:37:36;;;;;;;15.50;7.18;;;;;;;9.01;85.07;98097.84;5041366;28;20043;-46
2023/10/23 09:40:11;;;;;;;14.98;7.47;;;;;;;9.03;84.96;98095.19;5052636;28;20127;-47
2023/10/23 09:42:38;;;;;;;15.85;7.30;;;;;;;9.04;84.58;98092.53;5043898;28;20037;-48
2023/10/23 09:45:04;;;;;;;18.08;7.82;;;;;;;9.08;84.76;98095.78;5053744;28;20079;-46
2023/10/23 09:47:32;;;;;;;14.55;7.78;;;;;;;9.12;84.43;98098.13;5051395;28;20044;-50
2023/10/23 09:49:59;;;;;;;14.20;7.30;;;;;;;9.16;84.20;98097.03;5054194;28;20036;-45
2023/10/23 09:52:26;;;;;;;15.77;7.93;;;;;;;9.18;83.66;98090.00;5036179;28;20044;-50
2023/10/23 09:55:03;;;;;;;15.02;7.95;;;;;;;9.19;83.53;98089.09;5057151;28;20052;-48
2023/10/23 09:57:35;;;;;;;14.40;8.13;;;;;;;9.17;83.45;98084.91;5069391;28;20084;-46
2023/10/23 10:00:12;;;;;;;14.00;8.25;;;;;;;9.16;83.44;98085.84;5072432;28;20127;-48
2023/10/23 10:02:42;;;;;;;12.20;7.35;;;;;;;9.18;83.57;98082.22;5052294;28;20053;-48
2023/10/23 10:05:09;;;;;;;;;;;;;;;9.21;83.42;98082.06;5026547;28;20156;-49
2023/10/23 10:08:02;;;;;;;12.63;7.25;;;;;;;9.16;83.34;98081.47;5074100;28;19924;-48
2023/10/23 10:10:29;;;;;;;14.13;8.10;;;;;;;9.11;83.40;98070.50;5048179;28;20037;-47
2023/10/23 10:12:56;;;;;;;14.05;7.28;;;;;;;9.09;83.39;98067.19;5043113;28;20037;-50
2023/10/23 10:15:25;;;;;;;15.30;7.82;;;;;;;9.11;83.09;98061.91;5036205;28;20048;-48
2023/10/23 10:17:51;;;;;;;16.15;8.07;;;;;;;9.17;83.42;98057.22;5039110;28;20435;-49
2023/10/23 10:20:22;;;;;;;13.63;7.75;;;;;;;9.11;83.06;98038.56;5041815;28;20048;-47
2023/10/23 10:23:17;;;;;;;14.43;7.60;;;;;;;9.20;82.98;98040.69;5036256;28;20051;-51
2023/10/23 10:25:46;;;;;;;13.50;7.53;;;;;;;9.14;82.92;98046.19;5023618;28;20512;-52
2023/10/23 10:28:13;;;;;;;16.20;8.07;;;;;;;9.10;83.47;98053.31;5034290;28;20040;-49
2023/10/23 10:30:47;;;;;;;11.95;7.40;;;;;;;9.11;83.93;98046.34;5038103;28;20068;-46
2023/10/23 10:33:30;;;;;;;15.77;8.43;;;;;;;9.11;84.10;98048.94;5028088;28;20037;-49
2023/10/23 10:36:05;;;;;;;17.45;9.88;;;;;;;8.97;83.75;98022.94;5029496;28;20037;-50
2023/10/23 10:38:32;;;;;;;17.13;8.77;;;;;;;9.13;84.11;98044.50;5027578;28;20570;-55
2023/10/23 10:41:18;;;;;;;14.77;8.13;;;;;;;9.17;84.01;98038.22;5056167;28;20086;-50
2023/10/23 10:43:50;;;;;;;14.63;8.45;;;;;;;8.97;83.80;97995.28;5029003;28;20041;-53
2023/10/23 10:46:24;;;;;;;15.98;9.30;;;;;;;9.21;83.71;98025.00;5040693;28;20558;-49
2023/10/23 10:48:52;;;;;;;17.83;9.02;;;;;;;9.16;84.00;98021.84;5045249;28;20068;-55
2023/10/23 10:51:26;;;;;;;17.65;9.35;;;;;;;9.20;83.99;98025.97;5046519;28;20460;-46
2023/10/23 10:54:03;;;;;;;16.25;8.82;;;;;;;9.20;83.76;98031.16;5049239;28;20125;-53
2023/10/23 10:56:30;;;;;;;13.82;8.40;;;;;;;9.16;83.91;98028.81;5040029;28;20559;-47
2023/10/23 10:59:03;;;;;;;19.08;9.82;;;;;;;9.15;83.84;98020.19;5048008;28;20040;-49
2023/10/23 11:01:30;;;;;;;16.98;10.00;;;;;;;9.15;83.96;98021.94;5032705;28;20521;-49
2023/10/23 11:03:56;;;;;;;18.38;9.43;;;;;;;9.02;83.75;97993.25;5046789;28;20052;-49
2023/10/23 11:06:23;;;;;;;20.02;11.25;;;;;;;9.18;83.23;98014.81;5030998;28;20041;-47
2023/10/23 11:08:50;;;;;;;17.40;11.13;;;;;;;9.21;83.73;98019.03;5023612;28;20121;-53
2023/10/23 11:11:17;;;;;;;20.05;9.75;;;;;;;9.07;83.09;97987.81;5037587;28;20037;-48
2023/10/23 11:13:43;;;;;;;17.50;9.82;;;;;;;9.23;83.84;98009.38;5032961;28;20036;-50
2023/10/23 11:16:11;;;;;;;20.80;11.32;;;;;;;9.25;83.70;98002.38;5030816;28;20041;-52
2023/10/23 11:18:37;;;;;;;16.98;9.52;;;;;;;9.25;83.70;98000.63;5027633;28;20076;-50
2023/10/23 11:21:03;;;;;;;15.85;10.02;;;;;;;9.24;83.58;97996.34;5031675;28;20191;-49
2023/10/23 11:23:30;;;;;;;19.08;10.77;;;;;;;9.25;83.63;97989.41;5036922;28;20041;-51
2023/10/23 11:25:56;;;;;;;19.23;10.43;;;;;;;9.12;83.50;97972.84;5066229;28;20595;-50
2023/10/23 11:28:22;;;;;;;19.08;10.52;;;;;;;8.93;83.54;97937.59;5046145;28;20041;-49
2023/10/23 11:30:50;;;;;;;16.35;9.52;;;;;;;9.14;83.76;97982.22;5037575;28;20038;-49